sensor_id;sensor_type;location;lat;lon;timestamp;pressure;altitude;pressure_sealevel;temperature;humidity
56400;BME280;42298;53.638;9.876;2022-12-29T00:00:18;99840.53;;;11.46;78.11
56400;BME280;42298;53.638;9.876;2022-12-29T00:02:45;99846.84;;;11.47;77.94
56400;BME280;42298;53.638;9.876;2022-12-29T00:05:11;99830.31;;;11.47;78.00
56400;BME280;42298;53.638;9.876;2022-12-29T00:07:36;99818.81;;;11.45;77.82
56400;BME280;42298;53.638;9.876;2022-12-29T00:10:02;99812.56;;;11.56;77.76
56400;BME280;42298;53.638;9.876;2022-12-29T00:12:28;99825.81;;;11.63;77.38
56400;BME280;42298;53.638;9.876;2022-12-29T00:15:14;99813.75;;;11.68;77.07
56400;BME280;42298;53.638;9.876;2022-12-29T00:17:58;99806.31;;;11.68;77.00
56400;BME280;42298;53.638;9.876;2022-12-29T00:20:23;99803.78;;;11.75;77.18
56400;BME280;42298;53.638;9.876;2022-12-29T00:23:08;99798.28;;;11.75;76.77
56400;BME280;42298;53.638;9.876;2022-12-29T00:25:52;99796.19;;;11.72;76.94
56400;BME280;42298;53.638;9.876;2022-12-29T00:28:37;99794.50;;;11.80;76.79
56400;BME280;42298;53.638;9.876;2022-12-29T00:31:21;99795.31;;;11.80;77.24
56400;BME280;42298;53.638;9.876;2022-12-29T00:34:10;99788.28;;;11.83;76.75
56400;BME280;42298;53.638;9.876;2022-12-29T00:36:54;99786.13;;;11.76;77.31
56400;BME280;42298;53.638;9.876;2022-12-29T00:39:20;99785.88;;;11.81;76.65
56400;BME280;42298;53.638;9.876;2022-12-29T00:42:06;99786.94;;;11.89;76.81
56400;BME280;42298;53.638;9.876;2022-12-29T00:45:04;99776.91;;;11.84;76.87
56400;BME280;42298;53.638;9.876;2022-12-29T00:47:30;99769.59;;;11.88;76.58
56400;BME280;42298;53.638;9.876;2022-12-29T00:49:55;99778.56;;;11.97;76.51
56400;BME280;42298;53.638;9.876;2022-12-29T00:52:20;99781.09;;;12.02;76.23
56400;BME280;42298;53.638;9.876;2022-12-29T00:54:45;99770.06;;;12.02;76.56
56400;BME280;42298;53.638;9.876;2022-12-29T00:57:11;99784.13;;;12.09;76.57
56400;BME280;42298;53.638;9.876;2022-12-29T00:59:41;99785.50;;;12.15;76.22
56400;BME280;42298;53.638;9.876;2022-12-29T01:02:08;99765.16;;;12.08;76.60
56400;BME280;42298;53.638;9.876;2022-12-29T01:04:36;99776.88;;;12.17;76.62
56400;BME280;42298;53.638;9.876;2022-12-29T01:07:01;99767.22;;;12.11;76.38
56400;BME280;42298;53.638;9.876;2022-12-29T01:09:27;99760.88;;;12.10;76.33
56400;BME280;42298;53.638;9.876;2022-12-29T01:12:11;99756.72;;;12.04;76.20
56400;BME280;42298;53.638;9.876;2022-12-29T01:14:38;99770.91;;;12.15;76.03
56400;BME280;42298;53.638;9.876;2022-12-29T01:17:03;99751.22;;;12.04;75.94
56400;BME280;42298;53.638;9.876;2022-12-29T01:19:29;99758.47;;;12.09;75.98
56400;BME280;42298;53.638;9.876;2022-12-29T01:21:54;99745.00;;;12.07;75.95
56400;BME280;42298;53.638;9.876;2022-12-29T01:24:20;99740.88;;;12.25;76.05
56400;BME280;42298;53.638;9.876;2022-12-29T01:26:46;99743.41;;;12.30;75.72
56400;BME280;42298;53.638;9.876;2022-12-29T01:29:11;99735.72;;;12.24;76.05
56400;BME280;42298;53.638;9.876;2022-12-29T01:31:37;99744.56;;;12.29;76.34
56400;BME280;42298;53.638;9.876;2022-12-29T01:34:03;99732.03;;;12.32;76.37
56400;BME280;42298;53.638;9.876;2022-12-29T01:36:31;99722.59;;;12.33;76.52
56400;BME280;42298;53.638;9.876;2022-12-29T01:39:01;99728.22;;;12.36;76.47
56400;BME280;42298;53.638;9.876;2022-12-29T01:41:27;99728.69;;;12.38;76.23
56400;BME280;42298;53.638;9.876;2022-12-29T01:43:55;99736.75;;;12.43;76.43
56400;BME280;42298;53.638;9.876;2022-12-29T01:46:34;99714.88;;;12.38;76.27
56400;BME280;42298;53.638;9.876;2022-12-29T01:51:35;99711.06;;;12.31;77.02
56400;BME280;42298;53.638;9.876;2022-12-29T01:54:05;99702.44;;;12.32;76.73
56400;BME280;42298;53.638;9.876;2022-12-29T01:56:32;99707.75;;;12.37;76.45
56400;BME280;42298;53.638;9.876;2022-12-29T01:59:05;99703.25;;;12.45;76.70
56400;BME280;42298;53.638;9.876;2022-12-29T02:01:31;99709.00;;;12.40;77.02
56400;BME280;42298;53.638;9.876;2022-12-29T02:03:58;99707.84;;;12.41;77.08
56400;BME280;42298;53.638;9.876;2022-12-29T02:06:28;99708.44;;;12.46;76.66
56400;BME280;42298;53.638;9.876;2022-12-29T02:08:57;99700.38;;;12.41;76.60
56400;BME280;42298;53.638;9.876;2022-12-29T02:11:24;99698.09;;;12.43;77.10
56400;BME280;42298;53.638;9.876;2022-12-29T02:13:51;99692.31;;;12.36;77.00
56400;BME280;42298;53.638;9.876;2022-12-29T02:16:40;99692.22;;;12.45;77.03
56400;BME280;42298;53.638;9.876;2022-12-29T02:22:00;99681.25;;;12.48;76.78
56400;BME280;42298;53.638;9.876;2022-12-29T02:39:21;99652.94;;;12.51;76.70
56400;BME280;42298;53.638;9.876;2022-12-29T02:47:20;99653.97;;;12.59;76.27
56400;BME280;42298;53.638;9.876;2022-12-29T02:52:30;99649.13;;;12.56;75.93
56400;BME280;42298;53.638;9.876;2022-12-29T02:54:58;99652.69;;;12.68;75.58
56400;BME280;42298;53.638;9.876;2022-12-29T03:00:04;99650.56;;;12.77;76.08
56400;BME280;42298;53.638;9.876;2022-12-29T03:08:41;99652.06;;;12.87;75.72
56400;BME280;42298;53.638;9.876;2022-12-29T03:11:11;99641.44;;;12.89;75.11
56400;BME280;42298;53.638;9.876;2022-12-29T03:14:07;99644.13;;;12.85;75.15
56400;BME280;42298;53.638;9.876;2022-12-29T03:16:58;99642.00;;;12.94;75.26
56400;BME280;42298;53.638;9.876;2022-12-29T03:19:28;99630.50;;;12.92;74.90
56400;BME280;42298;53.638;9.876;2022-12-29T03:22:04;99631.16;;;13.01;75.06
56400;BME280;42298;53.638;9.876;2022-12-29T03:24:52;99613.00;;;13.00;75.03
56400;BME280;42298;53.638;9.876;2022-12-29T03:27:22;99609.94;;;13.05;74.69
56400;BME280;42298;53.638;9.876;2022-12-29T03:29:54;99608.91;;;12.98;74.49
56400;BME280;42298;53.638;9.876;2022-12-29T03:32:23;99610.66;;;13.02;74.60
56400;BME280;42298;53.638;9.876;2022-12-29T03:34:51;99594.69;;;12.96;74.68
56400;BME280;42298;53.638;9.876;2022-12-29T03:37:21;99596.63;;;12.95;74.69
56400;BME280;42298;53.638;9.876;2022-12-29T03:39:51;99597.31;;;13.04;74.98
56400;BME280;42298;53.638;9.876;2022-12-29T03:42:19;99613.06;;;13.04;74.87
56400;BME280;42298;53.638;9.876;2022-12-29T03:44:47;99614.78;;;13.08;74.48
56400;BME280;42298;53.638;9.876;2022-12-29T03:47:15;99601.78;;;13.09;74.10
56400;BME280;42298;53.638;9.876;2022-12-29T03:49:40;99590.06;;;13.00;74.13
56400;BME280;42298;53.638;9.876;2022-12-29T03:52:07;99585.44;;;13.04;73.92
56400;BME280;42298;53.638;9.876;2022-12-29T03:54:34;99600.53;;;13.06;74.38
56400;BME280;42298;53.638;9.876;2022-12-29T03:56:59;99581.06;;;13.03;74.27
56400;BME280;42298;53.638;9.876;2022-12-29T03:59:25;99582.09;;;12.98;74.04
56400;BME280;42298;53.638;9.876;2022-12-29T04:01:50;99574.59;;;13.11;73.97
56400;BME280;42298;53.638;9.876;2022-12-29T04:04:16;99577.44;;;13.14;73.97
56400;BME280;42298;53.638;9.876;2022-12-29T04:06:41;99568.69;;;13.12;73.76
56400;BME280;42298;53.638;9.876;2022-12-29T04:09:07;99573.16;;;13.17;73.79
56400;BME280;42298;53.638;9.876;2022-12-29T04:11:34;99559.50;;;13.08;73.66
56400;BME280;42298;53.638;9.876;2022-12-29T04:13:59;99558.00;;;13.11;74.10
56400;BME280;42298;53.638;9.876;2022-12-29T04:16:24;99570.22;;;13.25;73.84
56400;BME280;42298;53.638;9.876;2022-12-29T04:18:50;99553.97;;;13.08;73.83
56400;BME280;42298;53.638;9.876;2022-12-29T04:21:15;99557.81;;;13.19;73.46
56400;BME280;42298;53.638;9.876;2022-12-29T04:23:41;99554.81;;;13.24;73.63
56400;BME280;42298;53.638;9.876;2022-12-29T04:26:08;99554.88;;;13.12;73.16
56400;BME280;42298;53.638;9.876;2022-12-29T04:28:35;99565.84;;;13.09;73.30
56400;BME280;42298;53.638;9.876;2022-12-29T04:31:03;99552.13;;;13.12;73.21
56400;BME280;42298;53.638;9.876;2022-12-29T04:33:29;99552.41;;;13.23;73.47
56400;BME280;42298;53.638;9.876;2022-12-29T04:35:55;99543.28;;;13.22;73.03
56400;BME280;42298;53.638;9.876;2022-12-29T04:38:22;99535.44;;;13.24;72.93
56400;BME280;42298;53.638;9.876;2022-12-29T04:40:48;99539.34;;;13.23;73.32
56400;BME280;42298;53.638;9.876;2022-12-29T04:43:14;99538.84;;;13.33;73.03
56400;BME280;42298;53.638;9.876;2022-12-29T04:45:46;99545.50;;;13.32;73.09
56400;BME280;42298;53.638;9.876;2022-12-29T04:48:12;99541.69;;;13.37;73.67
56400;BME280;42298;53.638;9.876;2022-12-29T04:50:39;99544.97;;;13.42;72.83
56400;BME280;42298;53.638;9.876;2022-12-29T04:53:06;99526.31;;;13.39;73.29
56400;BME280;42298;53.638;9.876;2022-12-29T04:55:31;99532.22;;;13.38;74.09
56400;BME280;42298;53.638;9.876;2022-12-29T04:57:57;99515.75;;;13.26;74.71
56400;BME280;42298;53.638;9.876;2022-12-29T05:00:22;99525.19;;;13.25;75.30
56400;BME280;42298;53.638;9.876;2022-12-29T05:02:49;99511.91;;;13.15;75.54
56400;BME280;42298;53.638;9.876;2022-12-29T05:05:15;99520.28;;;13.18;75.66
56400;BME280;42298;53.638;9.876;2022-12-29T05:07:42;99520.81;;;13.24;76.11
56400;BME280;42298;53.638;9.876;2022-12-29T05:10:08;99517.94;;;13.20;75.78
56400;BME280;42298;53.638;9.876;2022-12-29T05:12:36;99522.06;;;13.26;76.30
56400;BME280;42298;53.638;9.876;2022-12-29T05:15:05;99508.59;;;13.25;76.06
56400;BME280;42298;53.638;9.876;2022-12-29T05:17:31;99520.34;;;13.22;76.99
56400;BME280;42298;53.638;9.876;2022-12-29T05:19:57;99522.69;;;13.20;76.71
56400;BME280;42298;53.638;9.876;2022-12-29T05:22:22;99528.47;;;13.15;77.07
56400;BME280;42298;53.638;9.876;2022-12-29T05:24:49;99525.53;;;13.23;76.69
56400;BME280;42298;53.638;9.876;2022-12-29T05:27:14;99529.56;;;13.26;76.53
56400;BME280;42298;53.638;9.876;2022-12-29T05:29:40;99513.97;;;13.33;77.31
56400;BME280;42298;53.638;9.876;2022-12-29T05:32:06;99510.09;;;13.07;77.30
56400;BME280;42298;53.638;9.876;2022-12-29T05:34:31;99526.44;;;13.27;77.99
56400;BME280;42298;53.638;9.876;2022-12-29T05:36:58;99525.38;;;13.32;77.33
56400;BME280;42298;53.638;9.876;2022-12-29T05:39:23;99539.34;;;13.23;77.60
56400;BME280;42298;53.638;9.876;2022-12-29T05:41:49;99525.09;;;13.21;78.40
56400;BME280;42298;53.638;9.876;2022-12-29T05:44:14;99530.63;;;13.21;77.89
56400;BME280;42298;53.638;9.876;2022-12-29T05:46:39;99549.25;;;13.40;77.18
56400;BME280;42298;53.638;9.876;2022-12-29T05:49:05;99534.09;;;13.34;77.02
56400;BME280;42298;53.638;9.876;2022-12-29T05:51:31;99510.28;;;13.29;76.74
56400;BME280;42298;53.638;9.876;2022-12-29T05:53:56;99524.53;;;13.47;76.81
56400;BME280;42298;53.638;9.876;2022-12-29T05:56:21;99529.44;;;13.54;75.86
56400;BME280;42298;53.638;9.876;2022-12-29T05:58:47;99528.81;;;13.44;75.69
56400;BME280;42298;53.638;9.876;2022-12-29T06:01:13;99526.69;;;13.54;75.32
56400;BME280;42298;53.638;9.876;2022-12-29T06:03:38;99526.84;;;13.61;75.49
56400;BME280;42298;53.638;9.876;2022-12-29T06:06:04;99538.81;;;13.65;75.38
56400;BME280;42298;53.638;9.876;2022-12-29T06:08:30;99534.78;;;13.62;74.32
56400;BME280;42298;53.638;9.876;2022-12-29T06:10:56;99534.88;;;13.50;74.72
56400;BME280;42298;53.638;9.876;2022-12-29T06:13:22;99540.25;;;13.59;74.06
56400;BME280;42298;53.638;9.876;2022-12-29T06:15:49;99547.19;;;13.68;74.10
56400;BME280;42298;53.638;9.876;2022-12-29T06:18:14;99540.25;;;13.59;73.76
56400;BME280;42298;53.638;9.876;2022-12-29T06:20:40;99543.44;;;13.61;74.06
56400;BME280;42298;53.638;9.876;2022-12-29T06:23:06;99539.53;;;13.62;73.66
56400;BME280;42298;53.638;9.876;2022-12-29T06:25:33;99533.34;;;13.68;73.49
56400;BME280;42298;53.638;9.876;2022-12-29T06:28:01;99534.72;;;13.59;74.14
56400;BME280;42298;53.638;9.876;2022-12-29T06:30:26;99548.25;;;13.64;73.57
56400;BME280;42298;53.638;9.876;2022-12-29T06:32:51;99537.53;;;13.62;73.41
56400;BME280;42298;53.638;9.876;2022-12-29T06:35:17;99536.94;;;13.69;72.98
56400;BME280;42298;53.638;9.876;2022-12-29T06:37:42;99547.53;;;13.67;72.96
56400;BME280;42298;53.638;9.876;2022-12-29T06:40:10;99540.94;;;13.71;72.83
56400;BME280;42298;53.638;9.876;2022-12-29T06:42:36;99545.22;;;13.69;72.64
56400;BME280;42298;53.638;9.876;2022-12-29T06:45:03;99541.28;;;13.70;72.98
56400;BME280;42298;53.638;9.876;2022-12-29T06:47:29;99546.31;;;13.64;73.03
56400;BME280;42298;53.638;9.876;2022-12-29T06:49:54;99534.88;;;13.66;73.18
56400;BME280;42298;53.638;9.876;2022-12-29T06:52:20;99524.97;;;13.65;73.22
56400;BME280;42298;53.638;9.876;2022-12-29T06:54:45;99525.84;;;13.69;73.05
56400;BME280;42298;53.638;9.876;2022-12-29T06:57:10;99529.50;;;13.73;72.99
56400;BME280;42298;53.638;9.876;2022-12-29T06:59:36;99509.00;;;13.58;73.15
56400;BME280;42298;53.638;9.876;2022-12-29T07:02:01;99527.41;;;13.51;73.95
56400;BME280;42298;53.638;9.876;2022-12-29T07:04:29;99514.75;;;13.50;73.04
56400;BME280;42298;53.638;9.876;2022-12-29T07:07:09;99526.22;;;13.52;72.75
56400;BME280;42298;53.638;9.876;2022-12-29T07:09:36;99518.47;;;13.41;73.32
56400;BME280;42298;53.638;9.876;2022-12-29T07:12:01;99528.22;;;13.35;73.53
56400;BME280;42298;53.638;9.876;2022-12-29T07:14:27;99525.59;;;13.42;73.64
56400;BME280;42298;53.638;9.876;2022-12-29T07:16:53;99538.91;;;13.37;73.09
56400;BME280;42298;53.638;9.876;2022-12-29T07:19:18;99520.47;;;13.25;73.21
56400;BME280;42298;53.638;9.876;2022-12-29T07:21:44;99539.72;;;13.37;72.48
56400;BME280;42298;53.638;9.876;2022-12-29T07:24:09;99541.88;;;13.28;73.25
56400;BME280;42298;53.638;9.876;2022-12-29T07:26:34;99554.53;;;13.29;73.19
56400;BME280;42298;53.638;9.876;2022-12-29T07:29:01;99537.88;;;13.26;72.86
56400;BME280;42298;53.638;9.876;2022-12-29T07:31:27;99537.38;;;13.39;73.02
56400;BME280;42298;53.638;9.876;2022-12-29T07:33:52;99541.16;;;13.31;72.86
56400;BME280;42298;53.638;9.876;2022-12-29T07:36:17;99539.38;;;13.39;72.39
56400;BME280;42298;53.638;9.876;2022-12-29T07:38:43;99541.06;;;13.43;72.70
56400;BME280;42298;53.638;9.876;2022-12-29T07:41:09;99546.41;;;13.52;71.92
56400;BME280;42298;53.638;9.876;2022-12-29T07:43:34;99549.25;;;13.56;71.30
56400;BME280;42298;53.638;9.876;2022-12-29T07:46:00;99566.28;;;13.58;71.10
56400;BME280;42298;53.638;9.876;2022-12-29T07:48:25;99569.06;;;13.58;71.08
56400;BME280;42298;53.638;9.876;2022-12-29T07:50:50;99557.00;;;13.50;71.31
56400;BME280;42298;53.638;9.876;2022-12-29T07:53:18;99559.72;;;13.47;70.38
56400;BME280;42298;53.638;9.876;2022-12-29T07:55:45;99563.34;;;13.51;71.36
56400;BME280;42298;53.638;9.876;2022-12-29T07:58:10;99564.06;;;13.48;71.24
56400;BME280;42298;53.638;9.876;2022-12-29T08:00:37;99565.75;;;13.52;70.60
56400;BME280;42298;53.638;9.876;2022-12-29T08:03:03;99575.28;;;13.55;70.84
56400;BME280;42298;53.638;9.876;2022-12-29T08:05:30;99563.81;;;13.53;70.27
56400;BME280;42298;53.638;9.876;2022-12-29T08:07:57;99562.19;;;13.52;70.99
56400;BME280;42298;53.638;9.876;2022-12-29T08:10:24;99568.88;;;13.51;71.29
56400;BME280;42298;53.638;9.876;2022-12-29T08:12:50;99585.94;;;13.53;71.22
56400;BME280;42298;53.638;9.876;2022-12-29T08:15:17;99577.44;;;13.45;71.71
56400;BME280;42298;53.638;9.876;2022-12-29T08:17:42;99576.91;;;13.40;72.03
56400;BME280;42298;53.638;9.876;2022-12-29T08:20:10;99572.19;;;13.40;71.37
56400;BME280;42298;53.638;9.876;2022-12-29T08:22:36;99587.00;;;13.32;71.58
56400;BME280;42298;53.638;9.876;2022-12-29T08:25:02;99585.75;;;13.30;71.98
56400;BME280;42298;53.638;9.876;2022-12-29T08:27:28;99588.41;;;13.26;72.60
56400;BME280;42298;53.638;9.876;2022-12-29T08:29:55;99604.28;;;13.29;72.38
56400;BME280;42298;53.638;9.876;2022-12-29T08:32:20;99608.13;;;13.25;72.38
56400;BME280;42298;53.638;9.876;2022-12-29T08:34:45;99612.06;;;13.24;72.59
56400;BME280;42298;53.638;9.876;2022-12-29T08:37:12;99617.22;;;13.41;72.80
56400;BME280;42298;53.638;9.876;2022-12-29T08:39:38;99617.06;;;13.50;72.26
56400;BME280;42298;53.638;9.876;2022-12-29T08:42:03;99609.84;;;13.45;71.82
56400;BME280;42298;53.638;9.876;2022-12-29T08:44:28;99612.16;;;13.43;71.97
56400;BME280;42298;53.638;9.876;2022-12-29T08:46:54;99611.44;;;13.46;71.76
56400;BME280;42298;53.638;9.876;2022-12-29T08:49:19;99625.91;;;13.55;71.85
56400;BME280;42298;53.638;9.876;2022-12-29T08:51:44;99618.66;;;13.51;72.10
56400;BME280;42298;53.638;9.876;2022-12-29T08:54:10;99625.53;;;13.57;71.70
56400;BME280;42298;53.638;9.876;2022-12-29T08:56:35;99611.97;;;13.52;71.61
56400;BME280;42298;53.638;9.876;2022-12-29T08:59:01;99620.81;;;13.57;71.56
56400;BME280;42298;53.638;9.876;2022-12-29T09:01:26;99633.75;;;13.53;71.82
56400;BME280;42298;53.638;9.876;2022-12-29T09:03:53;99607.53;;;13.63;71.89
56400;BME280;42298;53.638;9.876;2022-12-29T09:06:19;99620.91;;;13.76;71.52
56400;BME280;42298;53.638;9.876;2022-12-29T09:08:45;99623.16;;;13.71;71.72
56400;BME280;42298;53.638;9.876;2022-12-29T09:11:13;99628.94;;;13.66;71.33
56400;BME280;42298;53.638;9.876;2022-12-29T09:13:39;99615.91;;;13.66;70.95
56400;BME280;42298;53.638;9.876;2022-12-29T09:16:05;99629.81;;;13.70;70.79
56400;BME280;42298;53.638;9.876;2022-12-29T09:18:31;99632.16;;;13.68;69.95
56400;BME280;42298;53.638;9.876;2022-12-29T09:20:58;99632.53;;;13.66;70.91
56400;BME280;42298;53.638;9.876;2022-12-29T09:23:25;99617.50;;;13.52;69.75
56400;BME280;42298;53.638;9.876;2022-12-29T09:25:51;99628.22;;;13.53;69.81
56400;BME280;42298;53.638;9.876;2022-12-29T09:28:16;99624.03;;;13.43;69.78
56400;BME280;42298;53.638;9.876;2022-12-29T09:30:42;99635.63;;;13.49;69.79
56400;BME280;42298;53.638;9.876;2022-12-29T09:33:07;99650.25;;;13.65;69.50
56400;BME280;42298;53.638;9.876;2022-12-29T09:35:32;99660.88;;;13.79;68.52
56400;BME280;42298;53.638;9.876;2022-12-29T09:37:58;99659.19;;;13.90;69.27
56400;BME280;42298;53.638;9.876;2022-12-29T09:40:30;99650.28;;;13.96;68.27
56400;BME280;42298;53.638;9.876;2022-12-29T09:46:28;99662.78;;;13.90;67.42
56400;BME280;42298;53.638;9.876;2022-12-29T09:49:27;99670.53;;;13.85;66.91
56400;BME280;42298;53.638;9.876;2022-12-29T09:51:57;99656.78;;;13.73;67.89
56400;BME280;42298;53.638;9.876;2022-12-29T09:54:39;99662.56;;;13.83;67.32
56400;BME280;42298;53.638;9.876;2022-12-29T09:57:20;99665.25;;;13.95;67.44
56400;BME280;42298;53.638;9.876;2022-12-29T09:59:48;99657.25;;;13.90;66.83
56400;BME280;42298;53.638;9.876;2022-12-29T10:02:36;99681.78;;;13.92;67.10
56400;BME280;42298;53.638;9.876;2022-12-29T10:05:02;99670.88;;;13.83;66.92
56400;BME280;42298;53.638;9.876;2022-12-29T10:10:23;99677.78;;;13.74;66.37
56400;BME280;42298;53.638;9.876;2022-12-29T10:15:46;99677.31;;;13.72;66.37
56400;BME280;42298;53.638;9.876;2022-12-29T10:21:15;99676.34;;;13.80;65.61
56400;BME280;42298;53.638;9.876;2022-12-29T10:23:51;99666.41;;;13.79;65.99
56400;BME280;42298;53.638;9.876;2022-12-29T10:26:20;99662.31;;;13.88;65.59
56400;BME280;42298;53.638;9.876;2022-12-29T10:28:56;99658.31;;;13.86;64.42
56400;BME280;42298;53.638;9.876;2022-12-29T10:31:25;99666.00;;;13.77;64.52
56400;BME280;42298;53.638;9.876;2022-12-29T10:34:03;99668.47;;;13.82;64.45
56400;BME280;42298;53.638;9.876;2022-12-29T10:36:35;99667.59;;;13.78;64.61
56400;BME280;42298;53.638;9.876;2022-12-29T10:39:33;99658.31;;;13.70;63.60
56400;BME280;42298;53.638;9.876;2022-12-29T10:45:02;99654.19;;;13.64;64.24
56400;BME280;42298;53.638;9.876;2022-12-29T10:47:37;99659.53;;;13.73;63.76
56400;BME280;42298;53.638;9.876;2022-12-29T10:50:04;99649.19;;;13.70;63.56
56400;BME280;42298;53.638;9.876;2022-12-29T10:52:30;99648.56;;;13.61;63.63
56400;BME280;42298;53.638;9.876;2022-12-29T10:55:04;99661.31;;;13.65;63.87
56400;BME280;42298;53.638;9.876;2022-12-29T10:57:36;99651.59;;;13.56;63.44
56400;BME280;42298;53.638;9.876;2022-12-29T11:00:29;99646.41;;;13.70;63.20
56400;BME280;42298;53.638;9.876;2022-12-29T11:08:33;99651.69;;;13.75;63.00
56400;BME280;42298;53.638;9.876;2022-12-29T11:11:08;99645.28;;;13.71;62.55
56400;BME280;42298;53.638;9.876;2022-12-29T11:13:46;99652.88;;;13.74;62.15
56400;BME280;42298;53.638;9.876;2022-12-29T11:16:12;99639.81;;;13.74;63.48
56400;BME280;42298;53.638;9.876;2022-12-29T11:18:38;99652.56;;;13.79;62.92
56400;BME280;42298;53.638;9.876;2022-12-29T11:21:23;99648.47;;;13.88;62.92
56400;BME280;42298;53.638;9.876;2022-12-29T11:26:23;99649.38;;;13.77;62.38
56400;BME280;42298;53.638;9.876;2022-12-29T11:31:45;99652.66;;;13.67;62.33
56400;BME280;42298;53.638;9.876;2022-12-29T11:34:33;99633.56;;;13.77;62.76
56400;BME280;42298;53.638;9.876;2022-12-29T11:37:11;99641.09;;;13.77;61.85
56400;BME280;42298;53.638;9.876;2022-12-29T11:39:46;99652.22;;;13.80;61.41
56400;BME280;42298;53.638;9.876;2022-12-29T11:42:18;99630.44;;;13.79;61.19
56400;BME280;42298;53.638;9.876;2022-12-29T11:44:47;99650.00;;;13.70;61.64
56400;BME280;42298;53.638;9.876;2022-12-29T11:47:26;99614.38;;;13.53;61.18
56400;BME280;42298;53.638;9.876;2022-12-29T11:49:55;99632.59;;;13.54;61.76
56400;BME280;42298;53.638;9.876;2022-12-29T11:52:24;99655.25;;;13.60;61.25
56400;BME280;42298;53.638;9.876;2022-12-29T11:54:51;99659.53;;;13.73;62.05
56400;BME280;42298;53.638;9.876;2022-12-29T11:57:19;99660.88;;;13.79;61.83
56400;BME280;42298;53.638;9.876;2022-12-29T11:59:53;99659.28;;;13.78;61.44
56400;BME280;42298;53.638;9.876;2022-12-29T12:02:31;99662.88;;;13.78;61.79
56400;BME280;42298;53.638;9.876;2022-12-29T12:05:08;99630.47;;;13.63;61.97
56400;BME280;42298;53.638;9.876;2022-12-29T12:07:40;99666.97;;;13.69;61.94
56400;BME280;42298;53.638;9.876;2022-12-29T12:10:13;99662.47;;;13.48;61.92
56400;BME280;42298;53.638;9.876;2022-12-29T12:12:48;99672.22;;;13.58;62.32
56400;BME280;42298;53.638;9.876;2022-12-29T12:15:28;99636.34;;;13.46;62.67
56400;BME280;42298;53.638;9.876;2022-12-29T12:20:49;99664.28;;;13.57;63.02
56400;BME280;42298;53.638;9.876;2022-12-29T12:23:25;99665.44;;;13.56;64.42
56400;BME280;42298;53.638;9.876;2022-12-29T12:26:37;99664.09;;;13.50;64.96
56400;BME280;42298;53.638;9.876;2022-12-29T12:29:11;99670.50;;;13.54;64.62
56400;BME280;42298;53.638;9.876;2022-12-29T12:31:55;99664.53;;;13.52;64.47
56400;BME280;42298;53.638;9.876;2022-12-29T12:34:30;99667.81;;;13.41;63.97
56400;BME280;42298;53.638;9.876;2022-12-29T12:43:05;99660.06;;;13.47;64.86
56400;BME280;42298;53.638;9.876;2022-12-29T12:45:45;99668.34;;;13.47;63.74
56400;BME280;42298;53.638;9.876;2022-12-29T12:56:47;99658.56;;;13.50;64.35
56400;BME280;42298;53.638;9.876;2022-12-29T12:59:48;99673.81;;;13.59;64.98
56400;BME280;42298;53.638;9.876;2022-12-29T13:13:39;99700.41;;;13.48;64.41
56400;BME280;42298;53.638;9.876;2022-12-29T13:19:11;99714.78;;;13.54;64.39
56400;BME280;42298;53.638;9.876;2022-12-29T13:22:07;99713.22;;;13.40;64.02
56400;BME280;42298;53.638;9.876;2022-12-29T13:24:44;99728.66;;;13.41;65.22
56400;BME280;42298;53.638;9.876;2022-12-29T13:29:49;99750.28;;;13.24;67.15
56400;BME280;42298;53.638;9.876;2022-12-29T13:37:53;99745.50;;;12.97;69.61
56400;BME280;42298;53.638;9.876;2022-12-29T13:40:23;99752.63;;;12.98;70.29
56400;BME280;42298;53.638;9.876;2022-12-29T13:42:50;99746.44;;;12.89;70.61
56400;BME280;42298;53.638;9.876;2022-12-29T13:45:20;99776.50;;;12.78;71.54
56400;BME280;42298;53.638;9.876;2022-12-29T13:48:04;99792.63;;;12.76;71.58
56400;BME280;42298;53.638;9.876;2022-12-29T13:50:35;99800.31;;;12.83;72.06
56400;BME280;42298;53.638;9.876;2022-12-29T13:55:56;99807.25;;;12.53;73.25
56400;BME280;42298;53.638;9.876;2022-12-29T13:58:37;99820.44;;;12.11;72.34
56400;BME280;42298;53.638;9.876;2022-12-29T14:03:57;99827.38;;;11.85;72.50
56400;BME280;42298;53.638;9.876;2022-12-29T14:06:27;99837.78;;;11.67;72.29
56400;BME280;42298;53.638;9.876;2022-12-29T14:08:58;99822.53;;;11.49;72.48
56400;BME280;42298;53.638;9.876;2022-12-29T14:11:40;99837.31;;;11.44;72.63
56400;BME280;42298;53.638;9.876;2022-12-29T14:16:45;99845.72;;;11.27;73.32
56400;BME280;42298;53.638;9.876;2022-12-29T14:19:27;99841.28;;;11.35;72.79
56400;BME280;42298;53.638;9.876;2022-12-29T14:22:00;99847.94;;;11.34;72.58
56400;BME280;42298;53.638;9.876;2022-12-29T14:27:00;99859.47;;;11.48;73.29
56400;BME280;42298;53.638;9.876;2022-12-29T14:31:54;99871.53;;;11.43;73.32
56400;BME280;42298;53.638;9.876;2022-12-29T14:39:43;99876.44;;;11.58;72.91
56400;BME280;42298;53.638;9.876;2022-12-29T14:47:43;99889.38;;;11.46;72.27
56400;BME280;42298;53.638;9.876;2022-12-29T14:52:57;99895.25;;;11.36;72.75
56400;BME280;42298;53.638;9.876;2022-12-29T14:55:45;99900.31;;;11.34;72.81
56400;BME280;42298;53.638;9.876;2022-12-29T14:58:20;99908.09;;;11.32;72.46
56400;BME280;42298;53.638;9.876;2022-12-29T15:00:47;99902.00;;;11.26;72.77
56400;BME280;42298;53.638;9.876;2022-12-29T15:06:09;99912.00;;;11.31;72.74
56400;BME280;42298;53.638;9.876;2022-12-29T15:09:10;99909.59;;;11.29;72.56
56400;BME280;42298;53.638;9.876;2022-12-29T15:16:52;99917.28;;;11.15;73.14
56400;BME280;42298;53.638;9.876;2022-12-29T15:19:25;99921.34;;;11.18;72.87
56400;BME280;42298;53.638;9.876;2022-12-29T15:21:53;99924.72;;;11.23;73.13
56400;BME280;42298;53.638;9.876;2022-12-29T15:24:19;99932.31;;;11.26;73.30
56400;BME280;42298;53.638;9.876;2022-12-29T15:26:50;99926.88;;;11.38;72.96
56400;BME280;42298;53.638;9.876;2022-12-29T15:29:37;99950.47;;;11.48;73.04
56400;BME280;42298;53.638;9.876;2022-12-29T15:34:41;99954.53;;;11.50;73.16